Rawlings, Maryland
Current Conditions -  °F | °C
As of 2:01 AM on Sunday 26 Oct 2014 (Local Time) from KCBE Reporting Station
Clear Clear  
Wind Chill: 63°   Ceiling: Unl
Heat Index: 63°   Visibility: 10mi
Dew Point: 36°   Wind: 13mph
Humidity: 37%   Direction: 280°W
Pressure: 29.79"   Gusts: 32mph
Location:  39.53°N, 78.88°W
Report Text: KCBE 260601Z AUTO 28011G28KT 261V341 10SM CLR 17/02 A2979 RMK AO1
Loading
Personal Weather Stations






























Interactive Weather Map
Tropical Storm Tracking
New forecast layout! Learn more

10-Day Weather Forecast

Advertisements
Track Severe Weather on mobile